Guide — WDE7328 — position and weather

sailwx.info

Track history (hours):
 
Tides and Currents Weather Stations Pressure Air Temp Water Temp Dewpoint Dewpoint Depression Visibility Wind Speed Wind Dir Waves Ship Positions

Guide

Owner: Crowley Marine Services, SEATTLE, WA. More information available from US FCC via Universal Licensing System and Coast Guard Vessel Documentation Center.

Last reported at 2015-Jul-29 13:33 UTC. Time now 2015-Jul-29 13:36 UTC.
Position N 47°16' W 122°24'.

Length 34 m; draft 5.1 m.

Type: Tug. MMSI: 366759530.

Date/timePositionNaut miles runAvg speedWind from/ knotsBaromVisibWave heightAir tempDewpointWater temp
2015-Jul-29 13:33N 47°16' W 122°24'2 1.3
2015-Jul-29 12:20N 47°15' W 122°26'0 0.0
2015-Jul-29 11:33N 47°15' W 122°26'0 0.0
2015-Jul-29 10:33N 47°15' W 122°26'0 0.0
2015-Jul-29 09:33N 47°15' W 122°26'0 0.0
2015-Jul-29 08:33N 47°15' W 122°26'0 0.0
2015-Jul-29 07:33N 47°15' W 122°26'0 0.0
2015-Jul-29 05:25N 47°15' W 122°26'4 4.1
2015-Jul-29 04:33N 47°19' W 122°28'1 9.5
2015-Jul-29 04:26N 47°20' W 122°27'7 8.1
2015-Jul-29 03:33N 47°27' W 122°25'010.0
2015-Jul-29 03:31N 47°27' W 122°25'8 8.8
2015-Jul-29 02:33N 47°35' W 122°24'110.4
2015-Jul-29 02:31N 47°36' W 122°24'2 2.4
2015-Jul-29 01:33N 47°35' W 122°21'0 0.0
2015-Jul-29 01:31N 47°35' W 122°21'0 0.0
2015-Jul-29 00:33N 47°35' W 122°21'0 0.0
2015-Jul-29 00:31N 47°35' W 122°21'6 6.8
2015-Jul-28 23:33N 47°34' W 122°30'1 6.5
2015-Jul-28 23:21N 47°34' W 122°32'1 1.1
2015-Jul-28 22:33N 47°34' W 122°31'0 5.3
2015-Jul-28 22:31N 47°34' W 122°31'5 5.8
2015-Jul-28 21:33N 47°30' W 122°24'8 8.4
2015-Jul-28 20:33N 47°22' W 122°23'6 4.6
2015-Jul-28 19:10N 47°15' W 122°23'2 3.7
2015-Jul-28 18:33N 47°17' W 122°25'1 0.8
2015-Jul-28 17:28N 47°18' W 122°26'2 1.9
2015-Jul-28 16:32N 47°16' W 122°24'1 0.6
2015-Jul-28 15:33N 47°16' W 122°23'2 1.9
2015-Jul-28 14:33N 47°15' W 122°26'0 0.0
2015-Jul-28 13:27N 47°15' W 122°26'0 0.0
2015-Jul-28 12:33N 47°15' W 122°26'0 0.0
2015-Jul-28 10:33N 47°15' W 122°26'0 0.0
2015-Jul-28 09:18N 47°15' W 122°26'0 0.0
2015-Jul-28 08:33N 47°15' W 122°26'0 0.0
2015-Jul-28 07:33N 47°15' W 122°26'0 0.0
2015-Jul-28 06:33N 47°15' W 122°26'0 0.0
2015-Jul-28 05:33N 47°15' W 122°26'0 0.0
2015-Jul-28 04:33N 47°15' W 122°26'0 0.0
2015-Jul-28 03:33N 47°15' W 122°26'2 1.5
2015-Jul-28 02:33N 47°17' W 122°25'1 1.3
2015-Jul-28 01:33N 47°16' W 122°23'0 0.0
2015-Jul-28 01:27N 47°16' W 122°23'1 0.8
2015-Jul-28 00:31N 47°15' W 122°23'0 0.4
2015-Jul-27 23:33N 47°16' W 122°23'0 0.4
2015-Jul-27 22:33N 47°15' W 122°23'2 2.3
2015-Jul-27 21:31N 47°17' W 122°25'2 1.7
2015-Jul-27 20:33N 47°15' W 122°26'0 0.0
2015-Jul-27 19:33N 47°15' W 122°26'0 0.0
2015-Jul-27 17:33N 47°15' W 122°26'0 0.0
2015-Jul-27 16:33N 47°15' W 122°26'0 0.0
2015-Jul-27 15:33N 47°15' W 122°26'0 0.0
2015-Jul-27 14:33N 47°15' W 122°26'0 0.0
2015-Jul-27 13:26N 47°15' W 122°26'2 2.4
2015-Jul-27 12:31N 47°15' W 122°23'3 3.2
2015-Jul-27 11:33N 47°17' W 122°26'0 0.3
2015-Jul-27 10:33N 47°18' W 122°26'0 0.0
2015-Jul-27 09:33N 47°18' W 122°26'0 0.0
2015-Jul-27 08:30N 47°18' W 122°26'0 0.0
2015-Jul-27 07:33N 47°18' W 122°26'0 0.0
2015-Jul-27 06:33N 47°18' W 122°26'1 1.1
2015-Jul-27 05:33N 47°17' W 122°25'2 1.6
2015-Jul-27 04:33N 47°16' W 122°23'1 0.7
2015-Jul-27 03:33N 47°16' W 122°24'2 1.6
2015-Jul-27 02:31N 47°15' W 122°26'0 0.0
2015-Jul-27 01:33N 47°15' W 122°26'0 0.0
2015-Jul-27 00:25N 47°15' W 122°26'0 0.0
2015-Jul-26 23:33N 47°15' W 122°26'5 4.7
2015-Jul-26 22:33N 47°20' W 122°27'1 9.4
2015-Jul-26 22:30N 47°20' W 122°26'9 9.2
2015-Jul-26 21:33N 47°29' W 122°24'210.2
2015-Jul-26 21:24N 47°30' W 122°24'6 6.9
2015-Jul-26 20:33N 47°36' W 122°21'0 1.6
2015-Jul-26 20:25N 47°36' W 122°21'3 3.1
2015-Jul-26 19:33N 47°36' W 122°25'1 9.9
2015-Jul-26 19:30N 47°35' W 122°25'910.0
2015-Jul-26 18:33N 47°26' W 122°23'9 8.6
2015-Jul-26 17:32N 47°18' W 122°27'2 2.2
2015-Jul-26 16:29N 47°15' W 122°26'0 0.0
2015-Jul-26 15:33N 47°15' W 122°26'0 0.0
2015-Jul-26 14:32N 47°15' W 122°26'0 0.0
2015-Jul-26 12:33N 47°15' W 122°26'0 0.0
2015-Jul-26 11:29N 47°15' W 122°26'0 0.0
2015-Jul-26 10:33N 47°15' W 122°26'0 0.0
2015-Jul-26 09:33N 47°15' W 122°26'0 0.0
2015-Jul-26 08:33N 47°15' W 122°26'0 0.0
2015-Jul-26 06:30N 47°15' W 122°26'0 0.0
2015-Jul-26 05:33N 47°15' W 122°26'0 0.0
2015-Jul-26 04:33N 47°15' W 122°26'0 0.0
2015-Jul-26 03:29N 47°15' W 122°26'2 1.9
2015-Jul-26 02:32N 47°16' W 122°24'1 0.8
2015-Jul-26 01:42N 47°16' W 122°24'1 4.4
2015-Jul-26 01:33N 47°17' W 122°25'1 0.7
2015-Jul-26 00:33N 47°16' W 122°24'1 1.3
2015-Jul-25 23:33N 47°15' W 122°23'2 2.2
2015-Jul-25 22:33N 47°15' W 122°26'0 0.0
2015-Jul-25 21:33N 47°15' W 122°26'0 0.0
2015-Jul-25 20:33N 47°15' W 122°26'0 0.0
2015-Jul-25 19:33N 47°15' W 122°26'0 0.0
2015-Jul-25 18:33N 47°15' W 122°26'0 0.0
2015-Jul-25 17:33N 47°15' W 122°26'0 0.0
2015-Jul-25 16:33N 47°15' W 122°26'0 0.0
2015-Jul-25 15:33N 47°15' W 122°26'0 0.0
2015-Jul-25 14:33N 47°15' W 122°26'0 0.0
2015-Jul-25 13:33N 47°15' W 122°26'2 1.9
2015-Jul-25 12:30N 47°16' W 122°23'2 2.2
2015-Jul-25 11:33N 47°17' W 122°25'1 0.6
2015-Jul-25 10:33N 47°18' W 122°26'0 0.0
2015-Jul-25 09:33N 47°18' W 122°26'0 0.0
2015-Jul-25 08:33N 47°18' W 122°26'0 0.0
2015-Jul-25 07:33N 47°18' W 122°26'0 0.0
2015-Jul-25 06:33N 47°18' W 122°26'3 1.3
2015-Jul-25 04:27N 47°16' W 122°22'3 2.9
2015-Jul-25 03:33N 47°15' W 122°26'0 0.0
2015-Jul-25 02:33N 47°15' W 122°26'0 0.0
2015-Jul-25 01:33N 47°15' W 122°26'0 0.0
2015-Jul-25 00:33N 47°15' W 122°26'0 0.0
2015-Jul-24 23:13N 47°15' W 122°26'2 3.5
2015-Jul-24 22:31N 47°15' W 122°22'2 1.6
2015-Jul-24 21:32N 47°16' W 122°24'2 3.7
2015-Jul-24 21:04N 47°18' W 122°26'0 0.5
2015-Jul-24 20:31N 47°18' W 122°26'0 0.0
2015-Jul-24 19:33N 47°18' W 122°26'0 0.0
2015-Jul-24 18:31N 47°18' W 122°26'0 0.0
2015-Jul-24 17:33N 47°18' W 122°26'2 1.5
2015-Jul-24 16:33N 47°16' W 122°25'1 1.1
2015-Jul-24 15:33N 47°15' W 122°26'0 0.0
2015-Jul-24 12:28N 47°15' W 122°26'0 0.0
2015-Jul-24 11:30N 47°15' W 122°26'0 0.0
2015-Jul-24 10:32N 47°15' W 122°26'1 4.4
2015-Jul-24 10:18N 47°16' W 122°26'1 1.4
2015-Jul-24 09:33N 47°17' W 122°25'1 0.4
2015-Jul-24 07:31N 47°16' W 122°24'0 0.4
2015-Jul-24 06:24N 47°16' W 122°23'0 0.0
2015-Jul-24 05:32N 47°16' W 122°23'0 0.0
2015-Jul-24 04:32N 47°16' W 122°23'0 0.1
2015-Jul-24 02:32N 47°16' W 122°23'2 1.8
2015-Jul-24 01:33N 47°17' W 122°25'0 0.4
2015-Jul-24 00:32N 47°17' W 122°26'1 1.4
2015-Jul-23 23:33N 47°15' W 122°26'0 0.0
2015-Jul-23 22:33N 47°15' W 122°26'0 0.0
2015-Jul-23 21:33N 47°15' W 122°26'0 0.0
2015-Jul-23 20:33N 47°15' W 122°26'0 0.0
2015-Jul-23 19:33N 47°15' W 122°26'1 0.8
2015-Jul-23 18:38N 47°16' W 122°26'1 9.5
2015-Jul-23 18:33N 47°17' W 122°27'1 9.8
2015-Jul-23 18:28N 47°18' W 122°27'9 9.5
2015-Jul-23 17:33N 47°26' W 122°24'011.0
2015-Jul-23 17:32N 47°26' W 122°24'1010.1
2015-Jul-23 16:33N 47°36' W 122°23'010.2
2015-Jul-23 16:32N 47°36' W 122°22'1 1.1
2015-Jul-23 15:33N 47°35' W 122°22'0 2.4
2015-Jul-23 15:31N 47°35' W 122°22'1 0.6
2015-Jul-23 14:33N 47°35' W 122°21'0 0.0
2015-Jul-23 14:31N 47°35' W 122°21'1 0.8
2015-Jul-23 13:33N 47°36' W 122°22'0 7.3
2015-Jul-23 13:31N 47°36' W 122°22'6 6.7
2015-Jul-23 12:33N 47°30' W 122°25'8 8.5
2015-Jul-23 11:33N 47°21' W 122°23'4 4.2
2015-Jul-23 10:31N 47°18' W 122°26'0 0.1
2015-Jul-23 09:33N 47°18' W 122°26'2 2.4
2015-Jul-23 08:33N 47°16' W 122°24'2 0.4
2015-Jul-23 03:33N 47°17' W 122°25'2 2.3
2015-Jul-23 02:35N 47°16' W 122°23'0 4.1
2015-Jul-23 02:33N 47°16' W 122°23'2 1.6
2015-Jul-23 01:33N 47°17' W 122°25'0 0.0
2015-Jul-23 00:26N 47°17' W 122°25'1 0.8
2015-Jul-22 23:29N 47°17' W 122°25'2 0.7
2015-Jul-22 20:33N 47°15' W 122°26'0 0.0
2015-Jul-22 19:33N 47°15' W 122°26'0 0.0
2015-Jul-22 15:24N 47°15' W 122°26'2 1.9
2015-Jul-22 14:33N 47°17' W 122°25'1 1.1
2015-Jul-22 13:28N 47°16' W 122°23'0 0.5
2015-Jul-22 12:33N 47°16' W 122°24'1 1.4
2015-Jul-22 11:33N 47°17' W 122°25'2 2.1
2015-Jul-22 10:33N 47°16' W 122°23'2 2.3
2015-Jul-22 09:33N 47°16' W 122°26'1 1.1
2015-Jul-22 08:33N 47°15' W 122°26'0 0.0
2015-Jul-22 07:33N 47°15' W 122°26'0 0.0
2015-Jul-22 06:33N 47°15' W 122°26'0 0.0
2015-Jul-22 05:33N 47°15' W 122°26'0 0.0
2015-Jul-22 04:33N 47°15' W 122°26'0 0.0
2015-Jul-22 03:33N 47°15' W 122°26'0 0.0
2015-Jul-22 02:33N 47°15' W 122°26'0 0.0
2015-Jul-22 01:33N 47°15' W 122°26'0 0.0
2015-Jul-22 00:33N 47°15' W 122°26'0 0.0
2015-Jul-21 23:33N 47°15' W 122°26'0 0.0
2015-Jul-21 22:33N 47°15' W 122°26'0 0.0
2015-Jul-21 21:24N 47°15' W 122°26'0 0.0
2015-Jul-21 20:33N 47°15' W 122°26'0 0.0
2015-Jul-21 18:30N 47°15' W 122°26'0 0.0
2015-Jul-21 17:33N 47°15' W 122°26'0 0.0
2015-Jul-21 16:33N 47°15' W 122°26'0 0.0
2015-Jul-21 15:33N 47°15' W 122°26'0 0.0
2015-Jul-21 14:33N 47°15' W 122°26'0 0.0
2015-Jul-21 13:33N 47°15' W 122°26'0 0.0
2015-Jul-21 12:28N 47°15' W 122°26'0 0.0
2015-Jul-21 11:33N 47°15' W 122°26'0 0.0
2015-Jul-21 10:33N 47°15' W 122°26'0 0.0
2015-Jul-21 09:33N 47°15' W 122°26'0 0.0
2015-Jul-21 08:33N 47°15' W 122°26'0 0.0
2015-Jul-21 07:33N 47°15' W 122°26'0 0.0
2015-Jul-21 06:33N 47°15' W 122°26'0 0.0
2015-Jul-21 05:33N 47°15' W 122°26'0 0.0
2015-Jul-21 04:33N 47°15' W 122°26'0 0.0
2015-Jul-21 03:33N 47°15' W 122°26'0 0.0
2015-Jul-21 02:33N 47°15' W 122°26'0 0.0
2015-Jul-21 01:33N 47°15' W 122°26'2 2.0
2015-Jul-21 00:33N 47°16' W 122°23'1 1.3
2015-Jul-20 23:33N 47°16' W 122°24'2 1.2
2015-Jul-20 22:15N 47°15' W 122°26'0 0.0
2015-Jul-20 21:29N 47°15' W 122°26'0 0.0
2015-Jul-20 20:29N 47°15' W 122°26'0 0.0
2015-Jul-20 19:32N 47°15' W 122°26'0 0.0
2015-Jul-20 18:33N 47°15' W 122°26'0 0.0
2015-Jul-20 17:33N 47°15' W 122°26'0 0.0
2015-Jul-20 16:33N 47°15' W 122°26'0 0.0
2015-Jul-20 15:33N 47°15' W 122°26'0 0.0
2015-Jul-20 14:33N 47°15' W 122°26'0 0.0
2015-Jul-20 13:33N 47°15' W 122°26'1 1.3
2015-Jul-20 12:33N 47°17' W 122°26'2 1.4
2015-Jul-20 11:22N 47°16' W 122°24'0 0.0
2015-Jul-20 10:33N 47°16' W 122°24'2 1.8
2015-Jul-20 09:33N 47°15' W 122°26'0 0.0
2015-Jul-20 06:32N 47°15' W 122°26'0 0.0
2015-Jul-20 05:33N 47°15' W 122°26'0 0.0
2015-Jul-20 04:33N 47°15' W 122°26'0 0.0
2015-Jul-20 03:23N 47°15' W 122°26'0 0.0
2015-Jul-20 02:33N 47°15' W 122°26'0 0.0
2015-Jul-20 01:33N 47°15' W 122°26'0 0.0
2015-Jul-20 00:33N 47°15' W 122°26'0 0.0
2015-Jul-19 23:29N 47°15' W 122°26'1 1.2
2015-Jul-19 22:33N 47°16' W 122°26'1 1.1
2015-Jul-19 21:33N 47°17' W 122°27'2 2.2
2015-Jul-19 20:33N 47°15' W 122°26'0 0.0
2015-Jul-19 19:32N 47°15' W 122°26'0 0.0
2015-Jul-19 17:16N 47°15' W 122°26'0 0.0
2015-Jul-19 16:20N 47°15' W 122°26'0 0.0
2015-Jul-19 15:32N 47°15' W 122°26'0 0.0
2015-Jul-19 14:33N 47°15' W 122°26'2 1.8
2015-Jul-19 13:33N 47°16' W 122°24'  
Track history (hours):
 
Tides and Currents Weather Stations Pressure Air Temp Water Temp Dewpoint Dewpoint Depression Visibility Wind Speed Wind Dir Waves Ship Positions

Guide

Owner: Crowley Marine Services, SEATTLE, WA. More information available from US FCC via Universal Licensing System and Coast Guard Vessel Documentation Center.

Last reported at 2015-Jul-29 13:33 UTC. Time now 2015-Jul-29 13:36 UTC.
Position N 47°16' W 122°24'.

Length 34 m; draft 5.1 m.

Type: Tug. MMSI: 366759530.

Date/timePositionNaut miles runAvg speedWind from/ knotsBaromVisibWave heightAir tempDewpointWater temp
2015-Jul-29 13:33N 47°16' W 122°24'2 1.3
2015-Jul-29 12:20N 47°15' W 122°26'0 0.0
2015-Jul-29 11:33N 47°15' W 122°26'0 0.0
2015-Jul-29 10:33N 47°15' W 122°26'0 0.0
2015-Jul-29 09:33N 47°15' W 122°26'0 0.0
2015-Jul-29 08:33N 47°15' W 122°26'0 0.0
2015-Jul-29 07:33N 47°15' W 122°26'0 0.0
2015-Jul-29 05:25N 47°15' W 122°26'4 4.1
2015-Jul-29 04:33N 47°19' W 122°28'1 9.5
2015-Jul-29 04:26N 47°20' W 122°27'7 8.1
2015-Jul-29 03:33N 47°27' W 122°25'010.0
2015-Jul-29 03:31N 47°27' W 122°25'8 8.8
2015-Jul-29 02:33N 47°35' W 122°24'110.4
2015-Jul-29 02:31N 47°36' W 122°24'2 2.4
2015-Jul-29 01:33N 47°35' W 122°21'0 0.0
2015-Jul-29 01:31N 47°35' W 122°21'0 0.0
2015-Jul-29 00:33N 47°35' W 122°21'0 0.0
2015-Jul-29 00:31N 47°35' W 122°21'6 6.8
2015-Jul-28 23:33N 47°34' W 122°30'1 6.5
2015-Jul-28 23:21N 47°34' W 122°32'1 1.1
2015-Jul-28 22:33N 47°34' W 122°31'0 5.3
2015-Jul-28 22:31N 47°34' W 122°31'5 5.8
2015-Jul-28 21:33N 47°30' W 122°24'8 8.4
2015-Jul-28 20:33N 47°22' W 122°23'6 4.6
2015-Jul-28 19:10N 47°15' W 122°23'2 3.7
2015-Jul-28 18:33N 47°17' W 122°25'1 0.8
2015-Jul-28 17:28N 47°18' W 122°26'2 1.9
2015-Jul-28 16:32N 47°16' W 122°24'1 0.6
2015-Jul-28 15:33N 47°16' W 122°23'2 1.9
2015-Jul-28 14:33N 47°15' W 122°26'0 0.0
2015-Jul-28 13:27N 47°15' W 122°26'0 0.0
2015-Jul-28 12:33N 47°15' W 122°26'0 0.0
2015-Jul-28 10:33N 47°15' W 122°26'0 0.0
2015-Jul-28 09:18N 47°15' W 122°26'0 0.0
2015-Jul-28 08:33N 47°15' W 122°26'0 0.0
2015-Jul-28 07:33N 47°15' W 122°26'0 0.0
2015-Jul-28 06:33N 47°15' W 122°26'0 0.0
2015-Jul-28 05:33N 47°15' W 122°26'0 0.0
2015-Jul-28 04:33N 47°15' W 122°26'0 0.0
2015-Jul-28 03:33N 47°15' W 122°26'2 1.5
2015-Jul-28 02:33N 47°17' W 122°25'1 1.3
2015-Jul-28 01:33N 47°16' W 122°23'0 0.0
2015-Jul-28 01:27N 47°16' W 122°23'1 0.8
2015-Jul-28 00:31N 47°15' W 122°23'0 0.4
2015-Jul-27 23:33N 47°16' W 122°23'0 0.4
2015-Jul-27 22:33N 47°15' W 122°23'2 2.3
2015-Jul-27 21:31N 47°17' W 122°25'2 1.7
2015-Jul-27 20:33N 47°15' W 122°26'0 0.0
2015-Jul-27 19:33N 47°15' W 122°26'0 0.0
2015-Jul-27 17:33N 47°15' W 122°26'0 0.0
2015-Jul-27 16:33N 47°15' W 122°26'0 0.0
2015-Jul-27 15:33N 47°15' W 122°26'0 0.0
2015-Jul-27 14:33N 47°15' W 122°26'0 0.0
2015-Jul-27 13:26N 47°15' W 122°26'2 2.4
2015-Jul-27 12:31N 47°15' W 122°23'3 3.2
2015-Jul-27 11:33N 47°17' W 122°26'0 0.3
2015-Jul-27 10:33N 47°18' W 122°26'0 0.0
2015-Jul-27 09:33N 47°18' W 122°26'0 0.0
2015-Jul-27 08:30N 47°18' W 122°26'0 0.0
2015-Jul-27 07:33N 47°18' W 122°26'0 0.0
2015-Jul-27 06:33N 47°18' W 122°26'1 1.1
2015-Jul-27 05:33N 47°17' W 122°25'2 1.6
2015-Jul-27 04:33N 47°16' W 122°23'1 0.7
2015-Jul-27 03:33N 47°16' W 122°24'2 1.6
2015-Jul-27 02:31N 47°15' W 122°26'0 0.0
2015-Jul-27 01:33N 47°15' W 122°26'0 0.0
2015-Jul-27 00:25N 47°15' W 122°26'0 0.0
2015-Jul-26 23:33N 47°15' W 122°26'5 4.7
2015-Jul-26 22:33N 47°20' W 122°27'1 9.4
2015-Jul-26 22:30N 47°20' W 122°26'9 9.2
2015-Jul-26 21:33N 47°29' W 122°24'210.2
2015-Jul-26 21:24N 47°30' W 122°24'6 6.9
2015-Jul-26 20:33N 47°36' W 122°21'0 1.6
2015-Jul-26 20:25N 47°36' W 122°21'3 3.1
2015-Jul-26 19:33N 47°36' W 122°25'1 9.9
2015-Jul-26 19:30N 47°35' W 122°25'910.0
2015-Jul-26 18:33N 47°26' W 122°23'9 8.6
2015-Jul-26 17:32N 47°18' W 122°27'2 2.2
2015-Jul-26 16:29N 47°15' W 122°26'0 0.0
2015-Jul-26 15:33N 47°15' W 122°26'0 0.0
2015-Jul-26 14:32N 47°15' W 122°26'0 0.0
2015-Jul-26 12:33N 47°15' W 122°26'0 0.0
2015-Jul-26 11:29N 47°15' W 122°26'0 0.0
2015-Jul-26 10:33N 47°15' W 122°26'0 0.0
2015-Jul-26 09:33N 47°15' W 122°26'0 0.0
2015-Jul-26 08:33N 47°15' W 122°26'0 0.0
2015-Jul-26 06:30N 47°15' W 122°26'0 0.0
2015-Jul-26 05:33N 47°15' W 122°26'0 0.0
2015-Jul-26 04:33N 47°15' W 122°26'0 0.0
2015-Jul-26 03:29N 47°15' W 122°26'2 1.9
2015-Jul-26 02:32N 47°16' W 122°24'1 0.8
2015-Jul-26 01:42N 47°16' W 122°24'1 4.4
2015-Jul-26 01:33N 47°17' W 122°25'1 0.7
2015-Jul-26 00:33N 47°16' W 122°24'1 1.3
2015-Jul-25 23:33N 47°15' W 122°23'2 2.2
2015-Jul-25 22:33N 47°15' W 122°26'0 0.0
2015-Jul-25 21:33N 47°15' W 122°26'0 0.0
2015-Jul-25 20:33N 47°15' W 122°26'0 0.0
2015-Jul-25 19:33N 47°15' W 122°26'0 0.0
2015-Jul-25 18:33N 47°15' W 122°26'0 0.0
2015-Jul-25 17:33N 47°15' W 122°26'0 0.0
2015-Jul-25 16:33N 47°15' W 122°26'0 0.0
2015-Jul-25 15:33N 47°15' W 122°26'0 0.0
2015-Jul-25 14:33N 47°15' W 122°26'0 0.0
2015-Jul-25 13:33N 47°15' W 122°26'2 1.9
2015-Jul-25 12:30N 47°16' W 122°23'2 2.2
2015-Jul-25 11:33N 47°17' W 122°25'1 0.6
2015-Jul-25 10:33N 47°18' W 122°26'0 0.0
2015-Jul-25 09:33N 47°18' W 122°26'0 0.0
2015-Jul-25 08:33N 47°18' W 122°26'0 0.0
2015-Jul-25 07:33N 47°18' W 122°26'0 0.0
2015-Jul-25 06:33N 47°18' W 122°26'3 1.3
2015-Jul-25 04:27N 47°16' W 122°22'3 2.9
2015-Jul-25 03:33N 47°15' W 122°26'0 0.0
2015-Jul-25 02:33N 47°15' W 122°26'0 0.0
2015-Jul-25 01:33N 47°15' W 122°26'0 0.0
2015-Jul-25 00:33N 47°15' W 122°26'0 0.0
2015-Jul-24 23:13N 47°15' W 122°26'2 3.5
2015-Jul-24 22:31N 47°15' W 122°22'2 1.6
2015-Jul-24 21:32N 47°16' W 122°24'2 3.7
2015-Jul-24 21:04N 47°18' W 122°26'0 0.5
2015-Jul-24 20:31N 47°18' W 122°26'0 0.0
2015-Jul-24 19:33N 47°18' W 122°26'0 0.0
2015-Jul-24 18:31N 47°18' W 122°26'0 0.0
2015-Jul-24 17:33N 47°18' W 122°26'2 1.5
2015-Jul-24 16:33N 47°16' W 122°25'1 1.1
2015-Jul-24 15:33N 47°15' W 122°26'0 0.0
2015-Jul-24 12:28N 47°15' W 122°26'0 0.0
2015-Jul-24 11:30N 47°15' W 122°26'0 0.0
2015-Jul-24 10:32N 47°15' W 122°26'1 4.4
2015-Jul-24 10:18N 47°16' W 122°26'1 1.4
2015-Jul-24 09:33N 47°17' W 122°25'1 0.4
2015-Jul-24 07:31N 47°16' W 122°24'0 0.4
2015-Jul-24 06:24N 47°16' W 122°23'0 0.0
2015-Jul-24 05:32N 47°16' W 122°23'0 0.0
2015-Jul-24 04:32N 47°16' W 122°23'0 0.1
2015-Jul-24 02:32N 47°16' W 122°23'2 1.8
2015-Jul-24 01:33N 47°17' W 122°25'0 0.4
2015-Jul-24 00:32N 47°17' W 122°26'1 1.4
2015-Jul-23 23:33N 47°15' W 122°26'0 0.0
2015-Jul-23 22:33N 47°15' W 122°26'0 0.0
2015-Jul-23 21:33N 47°15' W 122°26'0 0.0
2015-Jul-23 20:33N 47°15' W 122°26'0 0.0
2015-Jul-23 19:33N 47°15' W 122°26'1 0.8
2015-Jul-23 18:38N 47°16' W 122°26'1 9.5
2015-Jul-23 18:33N 47°17' W 122°27'1 9.8
2015-Jul-23 18:28N 47°18' W 122°27'9 9.5
2015-Jul-23 17:33N 47°26' W 122°24'011.0
2015-Jul-23 17:32N 47°26' W 122°24'1010.1
2015-Jul-23 16:33N 47°36' W 122°23'010.2
2015-Jul-23 16:32N 47°36' W 122°22'1 1.1
2015-Jul-23 15:33N 47°35' W 122°22'0 2.4
2015-Jul-23 15:31N 47°35' W 122°22'1 0.6
2015-Jul-23 14:33N 47°35' W 122°21'0 0.0
2015-Jul-23 14:31N 47°35' W 122°21'1 0.8
2015-Jul-23 13:33N 47°36' W 122°22'0 7.3
2015-Jul-23 13:31N 47°36' W 122°22'6 6.7
2015-Jul-23 12:33N 47°30' W 122°25'8 8.5
2015-Jul-23 11:33N 47°21' W 122°23'4 4.2
2015-Jul-23 10:31N 47°18' W 122°26'0 0.1
2015-Jul-23 09:33N 47°18' W 122°26'2 2.4
2015-Jul-23 08:33N 47°16' W 122°24'2 0.4
2015-Jul-23 03:33N 47°17' W 122°25'2 2.3
2015-Jul-23 02:35N 47°16' W 122°23'0 4.1
2015-Jul-23 02:33N 47°16' W 122°23'2 1.6
2015-Jul-23 01:33N 47°17' W 122°25'0 0.0
2015-Jul-23 00:26N 47°17' W 122°25'1 0.8
2015-Jul-22 23:29N 47°17' W 122°25'2 0.7
2015-Jul-22 20:33N 47°15' W 122°26'0 0.0
2015-Jul-22 19:33N 47°15' W 122°26'0 0.0
2015-Jul-22 15:24N 47°15' W 122°26'2 1.9
2015-Jul-22 14:33N 47°17' W 122°25'1 1.1
2015-Jul-22 13:28N 47°16' W 122°23'0 0.5
2015-Jul-22 12:33N 47°16' W 122°24'1 1.4
2015-Jul-22 11:33N 47°17' W 122°25'2 2.1
2015-Jul-22 10:33N 47°16' W 122°23'2 2.3
2015-Jul-22 09:33N 47°16' W 122°26'1 1.1
2015-Jul-22 08:33N 47°15' W 122°26'0 0.0
2015-Jul-22 07:33N 47°15' W 122°26'0 0.0
2015-Jul-22 06:33N 47°15' W 122°26'0 0.0
2015-Jul-22 05:33N 47°15' W 122°26'0 0.0
2015-Jul-22 04:33N 47°15' W 122°26'0 0.0
2015-Jul-22 03:33N 47°15' W 122°26'0 0.0
2015-Jul-22 02:33N 47°15' W 122°26'0 0.0
2015-Jul-22 01:33N 47°15' W 122°26'0 0.0
2015-Jul-22 00:33N 47°15' W 122°26'0 0.0
2015-Jul-21 23:33N 47°15' W 122°26'0 0.0
2015-Jul-21 22:33N 47°15' W 122°26'0 0.0
2015-Jul-21 21:24N 47°15' W 122°26'0 0.0
2015-Jul-21 20:33N 47°15' W 122°26'0 0.0
2015-Jul-21 18:30N 47°15' W 122°26'0 0.0
2015-Jul-21 17:33N 47°15' W 122°26'0 0.0
2015-Jul-21 16:33N 47°15' W 122°26'0 0.0
2015-Jul-21 15:33N 47°15' W 122°26'0 0.0
2015-Jul-21 14:33N 47°15' W 122°26'0 0.0
2015-Jul-21 13:33N 47°15' W 122°26'0 0.0
2015-Jul-21 12:28N 47°15' W 122°26'0 0.0
2015-Jul-21 11:33N 47°15' W 122°26'0 0.0
2015-Jul-21 10:33N 47°15' W 122°26'0 0.0
2015-Jul-21 09:33N 47°15' W 122°26'0 0.0
2015-Jul-21 08:33N 47°15' W 122°26'0 0.0
2015-Jul-21 07:33N 47°15' W 122°26'0 0.0
2015-Jul-21 06:33N 47°15' W 122°26'0 0.0
2015-Jul-21 05:33N 47°15' W 122°26'0 0.0
2015-Jul-21 04:33N 47°15' W 122°26'0 0.0
2015-Jul-21 03:33N 47°15' W 122°26'0 0.0
2015-Jul-21 02:33N 47°15' W 122°26'0 0.0
2015-Jul-21 01:33N 47°15' W 122°26'2 2.0
2015-Jul-21 00:33N 47°16' W 122°23'1 1.3
2015-Jul-20 23:33N 47°16' W 122°24'2 1.2
2015-Jul-20 22:15N 47°15' W 122°26'0 0.0
2015-Jul-20 21:29N 47°15' W 122°26'0 0.0
2015-Jul-20 20:29N 47°15' W 122°26'0 0.0
2015-Jul-20 19:32N 47°15' W 122°26'0 0.0
2015-Jul-20 18:33N 47°15' W 122°26'0 0.0
2015-Jul-20 17:33N 47°15' W 122°26'0 0.0
2015-Jul-20 16:33N 47°15' W 122°26'0 0.0
2015-Jul-20 15:33N 47°15' W 122°26'0 0.0
2015-Jul-20 14:33N 47°15' W 122°26'0 0.0
2015-Jul-20 13:33N 47°15' W 122°26'1 1.3
2015-Jul-20 12:33N 47°17' W 122°26'2 1.4
2015-Jul-20 11:22N 47°16' W 122°24'0 0.0
2015-Jul-20 10:33N 47°16' W 122°24'2 1.8
2015-Jul-20 09:33N 47°15' W 122°26'0 0.0
2015-Jul-20 06:32N 47°15' W 122°26'0 0.0
2015-Jul-20 05:33N 47°15' W 122°26'0 0.0
2015-Jul-20 04:33N 47°15' W 122°26'0 0.0
2015-Jul-20 03:23N 47°15' W 122°26'0 0.0
2015-Jul-20 02:33N 47°15' W 122°26'0 0.0
2015-Jul-20 01:33N 47°15' W 122°26'0 0.0
2015-Jul-20 00:33N 47°15' W 122°26'0 0.0
2015-Jul-19 23:29N 47°15' W 122°26'1 1.2
2015-Jul-19 22:33N 47°16' W 122°26'1 1.1
2015-Jul-19 21:33N 47°17' W 122°27'2 2.2
2015-Jul-19 20:33N 47°15' W 122°26'0 0.0
2015-Jul-19 19:32N 47°15' W 122°26'0 0.0
2015-Jul-19 17:16N 47°15' W 122°26'0 0.0
2015-Jul-19 16:20N 47°15' W 122°26'0 0.0
2015-Jul-19 15:32N 47°15' W 122°26'0 0.0
2015-Jul-19 14:33N 47°15' W 122°26'2 1.8
2015-Jul-19 13:33N 47°16' W 122°24'  

Dump ship's entire track history